createdAt,value
2018-11-11T00:00:26.008Z,100173.49
2018-11-11T00:02:54.789Z,100170.99
2018-11-11T00:05:22.879Z,100168.02
2018-11-11T00:07:51.026Z,100174.49
2018-11-11T00:10:19.111Z,100175.80
2018-11-11T00:12:47.184Z,100180.94
2018-11-11T00:15:16.293Z,100179.52
2018-11-11T00:17:45.500Z,100183.16
2018-11-11T00:20:13.775Z,100171.63
2018-11-11T00:22:42.068Z,100175.59
2018-11-11T00:25:10.196Z,100166.58
2018-11-11T00:27:39.140Z,100171.53
2018-11-11T00:30:10.088Z,100167.31
2018-11-11T00:32:38.219Z,100174.12
2018-11-11T00:35:06.367Z,100172.20
2018-11-11T00:37:34.419Z,100174.72
2018-11-11T00:40:02.500Z,100180.16
2018-11-11T00:42:30.583Z,100180.94
2018-11-11T00:44:58.652Z,100182.09
2018-11-11T00:47:26.727Z,100185.44
2018-11-11T00:49:54.809Z,100182.45
2018-11-11T00:52:22.859Z,100184.34
2018-11-11T00:54:50.939Z,100186.59
2018-11-11T00:57:19.007Z,100191.23
2018-11-11T00:59:47.115Z,100187.90
2018-11-11T01:02:15.200Z,100191.16
2018-11-11T01:04:43.275Z,100196.92
2018-11-11T01:07:11.369Z,100200.85
2018-11-11T01:09:39.416Z,100200.72
2018-11-11T01:12:07.527Z,100199.91
2018-11-11T01:14:35.587Z,100201.59
2018-11-11T01:17:03.678Z,100201.52
2018-11-11T01:19:31.767Z,100202.06
2018-11-11T01:21:59.823Z,100197.95
2018-11-11T01:24:27.899Z,100199.17
2018-11-11T01:26:56.009Z,100198.91
2018-11-11T01:29:24.145Z,100197.95
2018-11-11T01:31:52.273Z,100194.88
2018-11-11T01:34:20.406Z,100193.86
2018-11-11T01:36:48.517Z,100201.81
2018-11-11T01:39:16.622Z,100197.28
2018-11-11T01:41:44.745Z,100197.84
2018-11-11T01:44:12.826Z,100191.03
2018-11-11T01:46:40.945Z,100191.52
2018-11-11T01:49:09.061Z,100192.06
2018-11-11T01:51:37.173Z,100189.48
2018-11-11T01:54:05.342Z,100188.84
2018-11-11T01:56:33.453Z,100189.20
2018-11-11T01:59:01.562Z,100185.51
2018-11-11T02:01:29.742Z,100187.42
2018-11-11T02:03:57.883Z,100183.36
2018-11-11T02:06:25.976Z,100182.30
2018-11-11T02:08:54.105Z,100180.98
2018-11-11T02:11:22.208Z,100178.22
2018-11-11T02:13:50.324Z,100171.58
2018-11-11T02:16:18.455Z,100168.05
2018-11-11T02:18:46.564Z,100173.11
2018-11-11T02:21:14.770Z,100165.73
2018-11-11T02:23:43.916Z,100168.72
2018-11-11T02:26:12.030Z,100173.30
2018-11-11T02:28:40.149Z,100174.62
2018-11-11T02:31:08.269Z,100182.66
2018-11-11T02:33:36.429Z,100174.31
2018-11-11T02:36:04.532Z,100173.03
2018-11-11T02:38:32.630Z,100171.58
2018-11-11T02:41:00.733Z,100172.80
2018-11-11T02:43:28.850Z,100172.99
2018-11-11T02:45:56.977Z,100176.94
2018-11-11T02:48:25.110Z,100176.56
2018-11-11T02:50:53.400Z,100174.32
2018-11-11T02:53:21.536Z,100182.25
2018-11-11T02:55:49.657Z,100179.16
2018-11-11T02:58:17.763Z,100182.30
2018-11-11T03:00:45.870Z,100189.30
2018-11-11T03:03:14.014Z,100191.97
2018-11-11T03:05:42.129Z,100186.55
2018-11-11T03:08:10.221Z,100185.65
2018-11-11T03:10:38.320Z,100182.66
2018-11-11T03:13:06.550Z,100181.62
2018-11-11T03:15:34.673Z,100187.23
2018-11-11T03:18:02.781Z,100185.33
2018-11-11T03:20:30.896Z,100180.67
2018-11-11T03:22:59.000Z,100176.92
2018-11-11T03:25:27.113Z,100183.09
2018-11-11T03:27:55.253Z,100178.12
2018-11-11T03:30:23.360Z,100180.52
2018-11-11T03:32:51.517Z,100185.14
2018-11-11T03:35:19.632Z,100186.55
2018-11-11T03:37:47.742Z,100176.77
2018-11-11T03:40:17.274Z,100175.28
2018-11-11T03:42:45.737Z,100179.11
2018-11-11T03:45:16.289Z,100185.33
2018-11-11T03:47:45.488Z,100185.45
2018-11-11T03:50:13.613Z,100187.59
2018-11-11T03:52:42.045Z,100191.70
2018-11-11T03:55:10.525Z,100187.48
2018-11-11T03:57:38.914Z,100195.08
2018-11-11T04:00:08.724Z,100189.16
2018-11-11T04:02:36.817Z,100195.80
2018-11-11T04:05:05.281Z,100184.13
2018-11-11T04:07:33.404Z,100184.69
2018-11-11T04:10:01.579Z,100178.12
2018-11-11T04:12:29.668Z,100184.24
2018-11-11T04:14:57.788Z,100191.45
2018-11-11T04:17:25.869Z,100204.11
2018-11-11T04:19:53.985Z,100211.41
2018-11-11T04:22:22.084Z,100211.13
2018-11-11T04:24:51.736Z,100210.51
2018-11-11T04:27:20.345Z,100209.63
2018-11-11T04:29:48.623Z,100203.50
2018-11-11T04:32:16.719Z,100190.95
2018-11-11T04:34:44.840Z,100176.39
2018-11-11T04:37:12.933Z,100188.44
2018-11-11T04:39:41.618Z,100190.88
2018-11-11T04:42:09.742Z,100190.19
2018-11-11T04:44:37.841Z,100187.30
2018-11-11T04:47:06.006Z,100178.59
2018-11-11T04:49:34.124Z,100180.97
2018-11-11T04:52:02.253Z,100188.59
2018-11-11T04:54:30.358Z,100196.36
2018-11-11T04:56:58.489Z,100191.41
2018-11-11T04:59:26.638Z,100190.27
2018-11-11T05:01:54.758Z,100192.14
2018-11-11T05:04:22.901Z,100195.13
2018-11-11T05:06:50.977Z,100200.39
2018-11-11T05:09:19.080Z,100188.69
2018-11-11T05:11:47.185Z,100193.55
2018-11-11T05:14:15.293Z,100194.69
2018-11-11T05:16:43.410Z,100194.31
2018-11-11T05:19:11.896Z,100193.67
2018-11-11T05:21:40.145Z,100196.86
2018-11-11T05:24:08.253Z,100197.80
2018-11-11T05:26:36.361Z,100197.77
2018-11-11T05:29:04.753Z,100196.36
2018-11-11T05:31:32.890Z,100204.31
2018-11-11T05:34:01.077Z,100204.78
2018-11-11T05:36:29.193Z,100213.08
2018-11-11T05:38:57.286Z,100217.28
2018-11-11T05:41:25.622Z,100214.91
2018-11-11T05:43:53.782Z,100208.83
2018-11-11T05:46:21.885Z,100216.95
2018-11-11T05:48:49.988Z,100205.70
2018-11-11T05:51:18.101Z,100204.66
2018-11-11T05:53:46.235Z,100202.71
2018-11-11T05:56:14.331Z,100208.22
2018-11-11T05:58:42.420Z,100215.52
2018-11-11T06:01:10.530Z,100214.69
2018-11-11T06:03:39.169Z,100213.75
2018-11-11T06:06:07.288Z,100217.22
2018-11-11T06:08:35.414Z,100214.53
2018-11-11T06:11:03.505Z,100222.24
2018-11-11T06:13:31.662Z,100227.58
2018-11-11T06:15:59.792Z,100210.22
2018-11-11T06:18:27.911Z,100216.66
2018-11-11T06:20:56.008Z,100219.20
2018-11-11T06:23:24.138Z,100222.61
2018-11-11T06:25:52.274Z,100218.83
2018-11-11T06:28:20.397Z,100225.52
2018-11-11T06:30:48.500Z,100224.48
2018-11-11T06:33:16.586Z,100224.78
2018-11-11T06:35:44.686Z,100234.48
2018-11-11T06:38:12.818Z,100233.36
2018-11-11T06:40:40.891Z,100232.91
2018-11-11T06:43:09.005Z,100232.42
2018-11-11T06:45:37.120Z,100231.07
2018-11-11T06:48:05.641Z,100230.18
2018-11-11T06:50:33.708Z,100237.40
2018-11-11T06:53:01.813Z,100234.96
2018-11-11T06:55:29.937Z,100233.83
2018-11-11T06:57:58.119Z,100236.64
2018-11-11T07:00:26.167Z,100236.77
2018-11-11T07:03:05.740Z,100232.16
2018-11-11T07:05:33.854Z,100237.02
2018-11-11T07:08:01.953Z,100237.48
2018-11-11T07:10:30.074Z,100236.04
2018-11-11T07:12:58.187Z,100229.51
2018-11-11T07:15:26.285Z,100233.14
2018-11-11T07:17:54.372Z,100228.85
2018-11-11T07:20:23.285Z,100239.96
2018-11-11T07:22:51.372Z,100250.80
2018-11-11T07:25:19.493Z,100243.70
2018-11-11T07:27:47.592Z,100246.27
2018-11-11T07:30:15.708Z,100241.48
2018-11-11T07:32:43.807Z,100245.77
2018-11-11T07:35:12.117Z,100247.63
2018-11-11T07:37:40.228Z,100254.59
2018-11-11T07:40:10.613Z,100253.04
2018-11-11T07:42:38.701Z,100257.16
2018-11-11T07:45:06.834Z,100262.06
2018-11-11T07:47:34.965Z,100249.24
2018-11-11T07:50:03.125Z,100257.20
2018-11-11T07:52:31.236Z,100252.42
2018-11-11T07:54:59.396Z,100253.69
2018-11-11T07:57:27.434Z,100257.77
2018-11-11T07:59:55.541Z,100258.44
2018-11-11T08:02:23.647Z,100265.89
2018-11-11T08:04:51.788Z,100278.52
2018-11-11T08:07:20.037Z,100279.97
2018-11-11T08:09:48.138Z,100279.11
2018-11-11T08:12:16.237Z,100263.95
2018-11-11T08:14:44.376Z,100267.10
2018-11-11T08:17:12.489Z,100270.79
2018-11-11T08:19:40.636Z,100273.39
2018-11-11T08:22:08.750Z,100284.04
2018-11-11T08:24:36.848Z,100285.11
2018-11-11T08:27:05.649Z,100284.25
2018-11-11T08:29:33.749Z,100281.83
2018-11-11T08:32:01.889Z,100283.69
2018-11-11T08:34:29.934Z,100288.58
2018-11-11T08:36:58.045Z,100288.58
2018-11-11T08:39:26.169Z,100292.95
2018-11-11T08:41:54.262Z,100289.51
2018-11-11T08:44:22.377Z,100294.53
2018-11-11T08:46:50.467Z,100296.52
2018-11-11T08:49:18.579Z,100296.95
2018-11-11T08:51:46.725Z,100296.95
2018-11-11T08:54:14.829Z,100296.77
2018-11-11T08:56:42.967Z,100297.05
2018-11-11T08:59:11.094Z,100296.02
2018-11-11T09:01:39.211Z,100296.30
2018-11-11T09:04:07.421Z,100295.91
2018-11-11T09:06:35.525Z,100299.88
2018-11-11T09:09:04.188Z,100303.59
2018-11-11T09:11:32.394Z,100301.28
2018-11-11T09:14:00.418Z,100300.62
2018-11-11T09:16:28.525Z,100307.24
2018-11-11T09:18:56.629Z,100301.77
2018-11-11T09:21:24.829Z,100306.86
2018-11-11T09:23:53.004Z,100301.54
2018-11-11T09:26:21.005Z,100306.39
2018-11-11T09:28:49.108Z,100308.21
2018-11-11T09:31:17.237Z,100302.70
2018-11-11T09:33:45.382Z,100313.27
2018-11-11T09:36:13.453Z,100311.72
2018-11-11T09:38:41.548Z,100307.62
2018-11-11T09:41:10.089Z,100306.90
2018-11-11T09:43:38.189Z,100305.20
2018-11-11T09:46:06.312Z,100307.72
2018-11-11T09:48:34.397Z,100305.37
2018-11-11T09:51:02.494Z,100303.63
2018-11-11T09:53:30.595Z,100303.63
2018-11-11T09:55:58.717Z,100310.86
2018-11-11T09:58:26.829Z,100304.03
2018-11-11T10:00:54.924Z,100308.75
2018-11-11T10:03:34.255Z,100309.59
2018-11-11T10:06:12.975Z,100308.75
2018-11-11T10:08:46.930Z,100310.83
2018-11-11T10:11:20.062Z,100310.44
2018-11-11T10:13:55.910Z,100308.19
2018-11-11T10:18:32.026Z,100303.98
2018-11-11T10:21:05.548Z,100311.55
2018-11-11T10:23:38.976Z,100313.13
2018-11-11T10:26:12.944Z,100314.91
2018-11-11T10:28:46.543Z,100316.98
2018-11-11T10:31:25.991Z,100320.89
2018-11-11T10:34:03.367Z,100322.08
2018-11-11T10:36:49.465Z,100321.50
2018-11-11T10:39:51.551Z,100314.31
2018-11-11T10:42:23.465Z,100322.86
2018-11-11T10:44:57.999Z,100318.52
2018-11-11T10:47:31.437Z,100325.28
2018-11-11T10:50:02.400Z,100324.70
2018-11-11T10:52:30.700Z,100327.69
2018-11-11T10:54:58.859Z,100337.10
2018-11-11T10:57:27.018Z,100328.24
2018-11-11T10:59:55.181Z,100328.98
2018-11-11T11:02:28.733Z,100320.28
2018-11-11T11:05:02.241Z,100322.87
2018-11-11T11:07:30.417Z,100331.57
2018-11-11T11:09:58.530Z,100326.33
2018-11-11T11:12:26.697Z,100327.06
2018-11-11T11:14:54.814Z,100331.53
2018-11-11T11:17:23.017Z,100332.09
2018-11-11T11:19:51.176Z,100332.00
2018-11-11T11:22:19.336Z,100329.44
2018-11-11T11:24:47.477Z,100332.41
2018-11-11T11:27:15.727Z,100335.83
2018-11-11T11:29:43.819Z,100331.95
2018-11-11T11:32:12.102Z,100338.59
2018-11-11T11:34:40.180Z,100340.38
2018-11-11T11:37:08.369Z,100342.16
2018-11-11T11:39:36.555Z,100343.06
2018-11-11T11:42:04.765Z,100334.42
2018-11-11T11:44:32.865Z,100337.89
2018-11-11T11:47:01.006Z,100340.39
2018-11-11T11:49:29.170Z,100334.68
2018-11-11T11:51:57.434Z,100328.63
2018-11-11T11:54:25.658Z,100321.26
2018-11-11T11:56:53.821Z,100327.05
2018-11-11T11:59:21.989Z,100327.73
2018-11-11T12:01:50.149Z,100323.23
2018-11-11T12:04:18.362Z,100329.02
2018-11-11T12:06:46.476Z,100321.47
2018-11-11T12:09:14.678Z,100326.14
2018-11-11T12:11:42.847Z,100309.92
2018-11-11T12:14:11.043Z,100310.35
2018-11-11T12:16:39.218Z,100312.62
2018-11-11T12:19:07.451Z,100311.28
2018-11-11T12:21:35.682Z,100317.44
2018-11-11T12:24:03.985Z,100316.23
2018-11-11T12:26:32.195Z,100317.39
2018-11-11T12:29:00.357Z,100313.65
2018-11-11T12:31:28.523Z,100313.72
2018-11-11T12:33:57.563Z,100307.45
2018-11-11T12:36:25.792Z,100302.09
2018-11-11T12:38:53.977Z,100309.38
2018-11-11T12:41:22.097Z,100318.86
2018-11-11T12:43:50.261Z,100332.31
2018-11-11T12:46:18.393Z,100329.00
2018-11-11T12:48:46.515Z,100332.56
2018-11-11T12:51:14.663Z,100331.30
2018-11-11T12:53:43.824Z,100337.44
2018-11-11T12:56:11.956Z,100344.73
2018-11-11T12:58:40.082Z,100349.17
2018-11-11T13:01:08.278Z,100351.00
2018-11-11T13:03:36.477Z,100347.79
2018-11-11T13:06:04.633Z,100334.88
2018-11-11T13:08:32.761Z,100341.70
2018-11-11T13:11:00.881Z,100354.94
2018-11-11T13:13:29.171Z,100362.70
2018-11-11T13:15:57.286Z,100364.45
2018-11-11T13:18:25.417Z,100367.16
2018-11-11T13:20:53.546Z,100368.28
2018-11-11T13:23:21.674Z,100373.00
2018-11-11T13:25:49.800Z,100377.62
2018-11-11T13:28:17.934Z,100372.95
2018-11-11T13:30:46.165Z,100371.17
2018-11-11T13:33:14.346Z,100363.11
2018-11-11T13:35:42.472Z,100366.27
2018-11-11T13:38:10.600Z,100366.27
2018-11-11T13:40:38.758Z,100363.89
2018-11-11T13:43:06.925Z,100366.77
2018-11-11T13:45:35.054Z,100372.20
2018-11-11T13:48:03.211Z,100374.47
2018-11-11T13:50:31.321Z,100378.94
2018-11-11T13:52:59.473Z,100378.31
2018-11-11T13:55:27.609Z,100393.66
2018-11-11T13:57:55.786Z,100384.92
2018-11-11T14:00:25.342Z,100384.82
2018-11-11T14:02:53.495Z,100382.92
2018-11-11T14:05:21.701Z,100389.38
2018-11-11T14:07:49.801Z,100386.09
2018-11-11T14:10:18.155Z,100388.23
2018-11-11T14:12:46.291Z,100403.52
2018-11-11T14:15:18.661Z,100398.27
2018-11-11T14:17:47.289Z,100402.96
2018-11-11T14:20:16.625Z,100409.81
2018-11-11T14:22:45.932Z,100405.52
2018-11-11T14:25:16.932Z,100399.58
2018-11-11T14:27:45.334Z,100406.14
2018-11-11T14:30:16.586Z,100419.16
2018-11-11T14:32:45.249Z,100417.48
2018-11-11T14:35:13.689Z,100421.81
2018-11-11T14:37:42.804Z,100423.94
2018-11-11T14:40:13.706Z,100417.23
2018-11-11T14:42:41.900Z,100427.35
2018-11-11T14:45:11.703Z,100429.23
2018-11-11T14:47:40.298Z,100431.20
2018-11-11T14:50:09.638Z,100435.27
2018-11-11T14:52:37.865Z,100432.28
2018-11-11T14:55:09.503Z,100431.17
2018-11-11T14:57:37.591Z,100434.75
2018-11-11T15:00:09.190Z,100437.11
2018-11-11T15:02:37.376Z,100434.95
2018-11-11T15:05:07.329Z,100435.95
2018-11-11T15:07:35.510Z,100435.73
2018-11-11T15:10:03.843Z,100442.16
2018-11-11T15:12:32.001Z,100420.57
2018-11-11T15:15:00.131Z,100423.41
2018-11-11T15:17:28.309Z,100422.91
2018-11-11T15:19:56.665Z,100426.67
2018-11-11T15:22:24.632Z,100432.83
2018-11-11T15:24:52.783Z,100438.44
2018-11-11T15:27:20.894Z,100427.63
2018-11-11T15:29:49.017Z,100422.31
2018-11-11T15:32:17.141Z,100430.02
2018-11-11T15:34:45.298Z,100437.11
2018-11-11T15:37:13.436Z,100429.55
2018-11-11T15:39:41.564Z,100428.38
2018-11-11T15:42:09.773Z,100427.33
2018-11-11T15:44:37.845Z,100424.34
2018-11-11T15:47:06.169Z,100437.08
2018-11-11T15:49:34.306Z,100450.34
2018-11-11T15:52:02.516Z,100446.51
2018-11-11T15:54:30.596Z,100443.32
2018-11-11T15:56:58.814Z,100449.41
2018-11-11T15:59:26.950Z,100453.11
2018-11-11T16:01:55.061Z,100453.95
2018-11-11T16:04:23.205Z,100450.71
2018-11-11T16:06:51.329Z,100452.25
2018-11-11T16:09:19.481Z,100450.09
2018-11-11T16:11:47.624Z,100439.14
2018-11-11T16:14:15.805Z,100443.61
2018-11-11T16:16:43.970Z,100452.34
2018-11-11T16:19:12.105Z,100458.34
2018-11-11T16:21:40.268Z,100454.94
2018-11-11T16:24:08.373Z,100458.48
2018-11-11T16:26:36.501Z,100462.72
2018-11-11T16:29:04.649Z,100484.05
2018-11-11T16:31:32.757Z,100492.84
2018-11-11T16:34:00.908Z,100488.45
2018-11-11T16:36:29.140Z,100491.63
2018-11-11T16:38:57.228Z,100487.41
2018-11-11T16:41:25.580Z,100490.41
2018-11-11T16:43:53.531Z,100477.24
2018-11-11T16:46:21.693Z,100470.94
2018-11-11T16:48:49.759Z,100472.77
2018-11-11T16:51:17.990Z,100483.11
2018-11-11T16:53:46.198Z,100485.02
2018-11-11T16:56:14.357Z,100493.53
2018-11-11T16:58:42.498Z,100494.15
2018-11-11T17:01:10.606Z,100504.26
2018-11-11T17:08:33.503Z,100493.86
2018-11-11T17:11:01.614Z,100501.02
2018-11-11T17:13:29.792Z,100502.12
2018-11-11T17:15:57.931Z,100513.81
2018-11-11T17:18:26.077Z,100518.11
2018-11-11T17:20:54.234Z,100527.00
2018-11-11T17:23:22.374Z,100537.10
2018-11-11T17:25:50.495Z,100541.70
2018-11-11T17:28:18.666Z,100565.88
2018-11-11T17:30:46.817Z,100563.41
2018-11-11T17:33:14.872Z,100563.16
2018-11-11T17:35:42.992Z,100559.20
2018-11-11T17:38:11.125Z,100568.97
2018-11-11T17:40:39.246Z,100558.95
2018-11-11T17:43:07.405Z,100557.73
2018-11-11T17:45:35.782Z,100567.84
2018-11-11T17:48:03.921Z,100561.94
2018-11-11T17:50:33.161Z,100565.97
2018-11-11T17:53:02.446Z,100559.61
2018-11-11T17:55:30.857Z,100567.74
2018-11-11T17:57:59.022Z,100563.63
2018-11-11T18:00:28.197Z,100563.44
2018-11-11T18:02:56.909Z,100563.83
2018-11-11T18:05:26.193Z,100565.30
2018-11-11T18:07:54.352Z,100568.39
2018-11-11T18:10:23.303Z,100565.77
2018-11-11T18:12:51.391Z,100560.84
2018-11-11T18:15:27.351Z,100548.09
2018-11-11T18:17:55.710Z,100565.95
2018-11-11T18:20:26.236Z,100561.20
2018-11-11T18:22:55.225Z,100569.06
2018-11-11T18:25:23.388Z,100568.38
2018-11-11T18:27:51.633Z,100571.94
2018-11-11T18:30:23.692Z,100561.20
2018-11-11T18:32:51.832Z,100563.80
2018-11-11T18:35:20.447Z,100575.12
2018-11-11T18:37:48.654Z,100571.66
2018-11-11T18:40:18.118Z,100575.85
2018-11-11T18:42:46.372Z,100585.50
2018-11-11T18:45:15.882Z,100583.42
2018-11-11T18:47:44.381Z,100588.10
2018-11-11T18:50:16.813Z,100584.91
2018-11-11T18:52:44.953Z,100589.50
2018-11-11T18:55:13.157Z,100587.25
2018-11-11T18:57:41.880Z,100587.07
2018-11-11T19:00:12.680Z,100591.38
2018-11-11T19:02:40.863Z,100591.30
2018-11-11T19:05:10.351Z,100589.69
2018-11-11T19:07:38.911Z,100590.16
2018-11-11T19:10:09.124Z,100587.81
2018-11-11T19:12:37.105Z,100599.47
2018-11-11T19:15:06.850Z,100587.26
2018-11-11T19:17:34.993Z,100583.03
2018-11-11T19:20:03.114Z,100594.55
2018-11-11T19:22:31.244Z,100600.69
2018-11-11T19:24:59.660Z,100600.86
2018-11-11T19:27:27.742Z,100614.03
2018-11-11T19:29:55.895Z,100623.66
2018-11-11T19:32:24.044Z,100625.14
2018-11-11T19:34:52.202Z,100630.83
2018-11-11T19:37:20.355Z,100630.20
2018-11-11T19:39:48.490Z,100623.02
2018-11-11T19:42:16.618Z,100627.78
2018-11-11T19:44:44.774Z,100621.62
2018-11-11T19:47:12.999Z,100625.38
2018-11-11T19:49:41.138Z,100619.30
2018-11-11T19:52:10.058Z,100632.94
2018-11-11T19:54:38.196Z,100631.89
2018-11-11T19:57:06.319Z,100639.09
2018-11-11T19:59:34.537Z,100640.02
2018-11-11T20:02:02.649Z,100642.55
2018-11-11T20:04:30.829Z,100650.78
2018-11-11T20:06:58.931Z,100655.09
2018-11-11T20:09:27.022Z,100652.39
2018-11-11T20:11:55.146Z,100659.98
2018-11-11T20:14:23.299Z,100656.69
2018-11-11T20:16:51.451Z,100657.70
2018-11-11T20:19:19.587Z,100663.44
2018-11-11T20:21:47.722Z,100668.08
2018-11-11T20:24:16.142Z,100675.31
2018-11-11T20:26:44.294Z,100680.23
2018-11-11T20:29:12.457Z,100682.02
2018-11-11T20:31:40.679Z,100684.97
2018-11-11T20:34:08.765Z,100672.56
2018-11-11T20:36:36.852Z,100684.30
2018-11-11T20:39:09.341Z,100665.52
2018-11-11T20:41:37.506Z,100658.30
2018-11-11T20:44:06.326Z,100665.85
2018-11-11T20:46:34.701Z,100667.92
2018-11-11T20:49:02.833Z,100669.05
2018-11-11T20:51:30.970Z,100666.82
2018-11-11T20:53:59.102Z,100662.27
2018-11-11T20:56:27.297Z,100668.30
2018-11-11T20:58:55.378Z,100677.37
2018-11-11T21:01:23.514Z,100683.24
2018-11-11T21:03:51.768Z,100679.53
2018-11-11T21:06:19.829Z,100688.05
2018-11-11T21:08:47.989Z,100681.25
2018-11-11T21:11:16.112Z,100689.48
2018-11-11T21:13:44.258Z,100694.72
2018-11-11T21:16:12.386Z,100696.88
2018-11-11T21:18:40.703Z,100700.53
2018-11-11T21:21:08.994Z,100700.08
2018-11-11T21:23:37.137Z,100692.02
2018-11-11T21:26:05.290Z,100691.17
2018-11-11T21:28:33.451Z,100696.78
2018-11-11T21:31:01.630Z,100709.58
2018-11-11T21:33:29.739Z,100716.96
2018-11-11T21:35:57.865Z,100723.67
2018-11-11T21:38:26.057Z,100726.54
2018-11-11T21:40:54.160Z,100729.23
2018-11-11T21:43:22.269Z,100724.92
2018-11-11T21:45:50.418Z,100737.25
2018-11-11T21:48:18.513Z,100729.79
2018-11-11T21:50:46.632Z,100717.55
2018-11-11T21:53:44.605Z,100711.02
2018-11-11T21:56:12.761Z,100702.53
2018-11-11T21:58:40.870Z,100700.29
2018-11-11T22:01:09.029Z,100699.83
2018-11-11T22:03:37.151Z,100701.39
2018-11-11T22:06:05.640Z,100706.53
2018-11-11T22:08:33.773Z,100706.75
2018-11-11T22:11:01.927Z,100719.23
2018-11-11T22:13:29.973Z,100724.01
2018-11-11T22:15:58.182Z,100725.78
2018-11-11T22:18:26.257Z,100729.03
2018-11-11T22:20:54.395Z,100738.10
2018-11-11T22:23:22.531Z,100744.86
2018-11-11T22:25:50.688Z,100738.44
2018-11-11T22:28:18.820Z,100744.06
2018-11-11T22:30:46.964Z,100736.80
2018-11-11T22:33:15.099Z,100736.72
2018-11-11T22:35:43.236Z,100743.64
2018-11-11T22:38:11.390Z,100742.92
2018-11-11T22:40:39.504Z,100743.39
2018-11-11T22:43:07.669Z,100744.61
2018-11-11T22:45:35.792Z,100751.07
2018-11-11T22:48:03.921Z,100743.59
2018-11-11T22:50:32.041Z,100749.30
2018-11-11T22:53:00.150Z,100745.16
2018-11-11T22:55:28.317Z,100745.25
2018-11-11T22:57:56.437Z,100743.94
2018-11-11T23:00:30.791Z,100760.45
2018-11-11T23:02:59.013Z,100771.23
2018-11-11T23:05:27.148Z,100775.13
2018-11-11T23:07:55.278Z,100789.70
2018-11-11T23:10:23.423Z,100799.98
2018-11-11T23:12:51.527Z,100790.91
2018-11-11T23:15:20.977Z,100793.23
2018-11-11T23:17:49.101Z,100793.56
2018-11-11T23:20:18.470Z,100796.94
2018-11-11T23:22:46.741Z,100800.81
2018-11-11T23:25:16.161Z,100789.03
2018-11-11T23:27:44.307Z,100788.66
2018-11-11T23:30:19.658Z,100801.25
2018-11-11T23:32:48.153Z,100801.63
2018-11-11T23:35:16.274Z,100804.66
2018-11-11T23:37:44.816Z,100798.28
2018-11-11T23:40:14.161Z,100805.44
2018-11-11T23:42:43.036Z,100810.86
2018-11-11T23:45:11.189Z,100813.11
2018-11-11T23:47:39.401Z,100810.34
2018-11-11T23:50:09.629Z,100812.11
2018-11-11T23:52:37.834Z,100813.89
2018-11-11T23:55:07.716Z,100816.59
2018-11-11T23:57:35.872Z,100814.36
